createdAt,value
2022-11-22T00:04:10.514Z,19.55
2022-11-22T00:09:12.257Z,19.02
2022-11-22T00:14:14.266Z,20.35
2022-11-22T00:19:16.235Z,19.50
2022-11-22T00:24:18.154Z,19.90
2022-11-22T00:29:19.987Z,18.95
2022-11-22T00:34:22.058Z,19.08
2022-11-22T00:39:23.785Z,19.60
2022-11-22T00:44:25.634Z,19.20
2022-11-22T00:49:27.748Z,18.23
2022-11-22T00:54:29.829Z,20.48
2022-11-22T00:59:31.862Z,18.20
2022-11-22T01:04:34.023Z,17.08
2022-11-22T01:09:35.883Z,19.00
2022-11-22T01:14:37.763Z,17.25
2022-11-22T01:19:39.790Z,17.88
2022-11-22T01:24:41.586Z,19.23
2022-11-22T01:29:43.356Z,18.05
2022-11-22T01:34:45.071Z,18.65
2022-11-22T01:39:46.905Z,18.55
2022-11-22T01:44:49.223Z,20.13
2022-11-22T01:50:04.672Z,19.45
2022-11-22T01:55:11.355Z,19.10
2022-11-22T02:00:16.768Z,19.20
2022-11-22T02:05:21.403Z,20.40
2022-11-22T02:10:26.521Z,19.35
2022-11-22T02:15:28.507Z,20.15
2022-11-22T02:20:30.284Z,18.00
2022-11-22T02:25:47.419Z,20.27
2022-11-22T02:30:49.205Z,19.92
2022-11-22T02:35:51.474Z,19.27
2022-11-22T02:41:02.963Z,20.27
2022-11-22T02:46:10.409Z,21.17
2022-11-22T02:51:17.259Z,20.07
2022-11-22T02:56:19.224Z,20.13
2022-11-22T03:01:21.024Z,18.63
2022-11-22T03:06:22.930Z,20.85
2022-11-22T03:11:25.482Z,21.45
2022-11-22T03:16:27.190Z,21.63
2022-11-22T03:21:28.878Z,20.50
2022-11-22T03:26:30.646Z,20.77
2022-11-22T03:31:32.589Z,21.15
2022-11-22T03:36:34.529Z,24.50
2022-11-22T03:41:36.321Z,21.25
2022-11-22T03:46:38.246Z,21.25
2022-11-22T03:51:40.135Z,20.88
2022-11-22T03:56:41.983Z,19.40
2022-11-22T04:01:43.946Z,22.52
2022-11-22T04:06:45.801Z,22.30
2022-11-22T04:11:47.552Z,23.75
2022-11-22T04:16:49.407Z,21.02
2022-11-22T04:21:51.212Z,21.48
2022-11-22T04:26:53.484Z,21.48
2022-11-22T04:32:13.887Z,22.83
2022-11-22T04:37:15.630Z,23.55
2022-11-22T04:42:35.870Z,23.55
2022-11-22T04:47:56.340Z,21.65
2022-11-22T04:52:58.214Z,22.80
2022-11-22T04:58:00.560Z,25.13
2022-11-22T05:03:03.266Z,24.05
2022-11-22T05:08:06.186Z,21.38
2022-11-22T05:13:08.046Z,20.45
2022-11-22T05:18:10.199Z,21.77
2022-11-22T05:23:31.612Z,19.58
2022-11-22T05:28:35.472Z,20.45
2022-11-22T05:33:38.822Z,20.65
2022-11-22T05:38:40.622Z,20.15
2022-11-22T05:43:42.802Z,22.75
2022-11-22T05:48:46.023Z,22.02
2022-11-22T05:53:48.405Z,20.25
2022-11-22T05:58:51.292Z,24.17
2022-11-22T06:03:54.035Z,22.67
2022-11-22T06:08:55.916Z,21.58
2022-11-22T06:13:59.926Z,28.27
2022-11-22T06:19:01.790Z,23.10
2022-11-22T06:24:03.763Z,21.88
2022-11-22T06:29:05.834Z,22.65
2022-11-22T06:34:07.622Z,23.02
2022-11-22T06:39:09.856Z,23.95
2022-11-22T06:44:11.888Z,24.83
2022-11-22T06:49:14.990Z,29.52
2022-11-22T06:54:16.709Z,34.70
2022-11-22T06:59:18.680Z,36.20
2022-11-22T07:04:20.544Z,28.60
2022-11-22T07:09:22.449Z,26.98
2022-11-22T07:14:24.321Z,25.98
2022-11-22T07:19:26.238Z,23.02
2022-11-22T07:24:28.849Z,21.05
2022-11-22T07:29:30.844Z,23.45
2022-11-22T07:34:32.855Z,23.15
2022-11-22T07:39:34.793Z,23.98
2022-11-22T07:44:36.665Z,23.40
2022-11-22T07:49:39.881Z,24.17
2022-11-22T07:54:41.782Z,35.95
2022-11-22T07:59:43.534Z,27.80
2022-11-22T08:04:45.292Z,23.30
2022-11-22T08:09:47.272Z,22.15
2022-11-22T08:14:49.318Z,24.42
2022-11-22T08:19:53.490Z,21.42
2022-11-22T08:24:55.340Z,23.73
2022-11-22T08:29:57.235Z,22.05
2022-11-22T08:34:59.303Z,23.63
2022-11-22T08:40:01.203Z,24.83
2022-11-22T08:45:03.336Z,24.05
2022-11-22T08:50:05.667Z,22.95
2022-11-22T08:55:08.069Z,23.40
2022-11-22T09:00:11.399Z,23.05
2022-11-22T09:05:13.288Z,24.52
2022-11-22T09:10:15.107Z,24.73
2022-11-22T09:15:17.391Z,25.13
2022-11-22T09:20:19.242Z,22.55
2022-11-22T09:25:21.384Z,25.52
2022-11-22T09:30:23.169Z,27.00
2022-11-22T09:35:24.954Z,24.05
2022-11-22T09:40:26.993Z,22.85
2022-11-22T09:45:41.210Z,26.02
2022-11-22T09:50:51.580Z,24.30
2022-11-22T09:55:56.954Z,23.00
2022-11-22T10:01:07.693Z,21.33
2022-11-22T10:06:20.952Z,20.05
2022-11-22T10:11:41.278Z,20.20
2022-11-22T10:16:56.921Z,19.80
2022-11-22T10:21:58.788Z,23.02
2022-11-22T10:27:01.061Z,20.48
2022-11-22T10:32:26.259Z,19.67
2022-11-22T10:37:39.574Z,20.17
2022-11-22T10:42:58.073Z,21.25
2022-11-22T10:48:05.805Z,19.98
2022-11-22T10:53:07.570Z,20.27
2022-11-22T10:58:22.017Z,19.05
2022-11-22T11:03:38.534Z,20.15
2022-11-22T11:09:36.241Z,19.48
2022-11-22T11:14:28.209Z,20.50
2022-11-22T11:19:37.139Z,22.63
2022-11-22T11:24:40.654Z,19.65
2022-11-22T11:30:03.540Z,21.33
2022-11-22T11:35:08.261Z,18.13
2022-11-22T11:40:31.796Z,19.83
2022-11-22T11:45:33.654Z,21.70
2022-11-22T11:50:36.027Z,19.80
2022-11-22T11:55:38.022Z,19.20
2022-11-22T12:00:40.502Z,18.27
2022-11-22T12:05:42.419Z,18.05
2022-11-22T12:11:00.214Z,17.58
2022-11-22T12:16:26.109Z,16.67
2022-11-22T12:21:39.454Z,17.58
2022-11-22T12:26:41.826Z,20.52
2022-11-22T12:31:57.645Z,16.60
2022-11-22T12:37:07.991Z,20.80
2022-11-22T12:42:20.045Z,22.50
2022-11-22T12:47:30.674Z,19.73
2022-11-22T12:52:51.092Z,21.85
2022-11-22T12:57:52.746Z,22.58
2022-11-22T13:02:58.817Z,27.50
2022-11-22T13:08:36.461Z,21.90
2022-11-22T13:13:48.622Z,19.13
2022-11-22T13:19:02.761Z,21.98
2022-11-22T13:24:26.353Z,21.35
2022-11-22T13:29:29.576Z,16.20
2022-11-22T13:34:32.708Z,17.13
2022-11-22T13:39:42.515Z,18.35
2022-11-22T13:49:57.910Z,15.98
2022-11-22T13:55:21.527Z,17.52
2022-11-22T14:00:23.333Z,16.25
2022-11-22T14:05:41.939Z,18.05
2022-11-22T14:10:52.939Z,16.42
2022-11-22T14:16:12.377Z,17.77
2022-11-22T14:21:29.266Z,17.30
2022-11-22T14:27:00.127Z,16.92
2022-11-22T14:32:19.883Z,17.80
2022-11-22T14:37:34.198Z,18.95
2022-11-22T14:42:47.298Z,16.98
2022-11-22T14:47:52.349Z,15.15
2022-11-22T14:52:57.588Z,13.77
2022-11-22T14:58:08.282Z,28.83
2022-11-22T15:03:24.763Z,23.98
2022-11-22T15:09:20.505Z,15.27
2022-11-22T15:14:56.805Z,14.70
2022-11-22T15:58:49.539Z,12.02
2022-11-22T16:09:00.796Z,13.25
2022-11-22T16:14:03.226Z,12.30
2022-11-22T16:19:34.682Z,13.88
2022-11-22T16:24:36.483Z,17.13
2022-11-22T16:29:38.526Z,15.13
2022-11-22T16:34:44.187Z,13.10
2022-11-22T16:39:46.117Z,12.68
2022-11-22T16:44:49.019Z,12.80
2022-11-22T16:49:50.992Z,13.20
2022-11-22T16:54:52.869Z,11.95
2022-11-22T16:59:54.762Z,11.38
2022-11-22T17:04:56.810Z,13.38
2022-11-22T17:09:58.737Z,12.15
2022-11-22T17:15:00.578Z,14.77
2022-11-22T17:20:02.636Z,14.55
2022-11-22T17:25:04.847Z,14.43
2022-11-22T17:30:07.319Z,12.07
2022-11-22T17:35:10.677Z,10.45
2022-11-22T17:40:13.386Z,11.02
2022-11-22T17:45:15.153Z,12.55
2022-11-22T17:50:17.156Z,13.13
2022-11-22T17:55:18.998Z,14.77
2022-11-22T18:00:24.283Z,10.82
2022-11-22T18:05:30.256Z,14.15
2022-11-22T18:10:32.083Z,14.10
2022-11-22T18:15:33.755Z,14.43
2022-11-22T18:20:37.045Z,12.85
2022-11-22T18:25:38.759Z,9.40
2022-11-22T18:30:44.250Z,9.40
2022-11-22T18:35:56.077Z,8.60
2022-11-22T18:41:07.702Z,9.70
2022-11-22T18:46:11.106Z,8.77
2022-11-22T18:51:13.471Z,8.32
2022-11-22T18:56:17.050Z,8.18
2022-11-22T19:01:21.739Z,8.32
2022-11-22T19:06:23.602Z,8.45
2022-11-22T19:11:26.055Z,10.57
2022-11-22T19:16:30.124Z,10.38
2022-11-22T19:21:32.079Z,9.73
2022-11-22T19:26:34.199Z,8.77
2022-11-22T19:31:36.994Z,10.75
2022-11-22T19:36:40.650Z,11.85
2022-11-22T19:41:43.381Z,15.07
2022-11-22T19:46:45.578Z,11.40
2022-11-22T19:51:47.356Z,9.57
2022-11-22T19:56:49.231Z,11.25
2022-11-22T20:01:51.048Z,15.18
2022-11-22T20:06:53.013Z,11.65
2022-11-22T20:11:54.734Z,11.75
2022-11-22T20:16:56.625Z,10.05
2022-11-22T20:21:58.334Z,10.70
2022-11-22T20:27:00.825Z,9.30
2022-11-22T20:32:02.785Z,10.13
2022-11-22T20:37:04.640Z,8.70
2022-11-22T20:42:32.925Z,8.57
2022-11-22T20:47:28.374Z,8.18
2022-11-22T20:52:30.154Z,8.45
2022-11-22T20:57:31.930Z,10.57
2022-11-22T21:02:34.643Z,9.35
2022-11-22T21:07:36.608Z,9.15
2022-11-22T21:12:38.414Z,9.25
2022-11-22T21:18:01.942Z,10.50
2022-11-22T21:23:01.972Z,9.43
2022-11-22T21:28:04.093Z,10.90
2022-11-22T21:33:06.002Z,10.18
2022-11-22T21:38:07.702Z,9.20
2022-11-22T21:43:09.619Z,8.88
2022-11-22T21:48:11.472Z,10.30
2022-11-22T21:53:14.219Z,8.93
2022-11-22T21:58:16.933Z,7.85
2022-11-22T22:03:18.863Z,8.13
2022-11-22T22:08:20.865Z,8.55
2022-11-22T22:13:22.617Z,8.65
2022-11-22T22:18:29.526Z,9.18
2022-11-22T22:23:33.309Z,9.55
2022-11-22T22:28:36.930Z,9.25
2022-11-22T22:33:41.041Z,10.07
2022-11-22T22:38:42.803Z,10.05
2022-11-22T22:43:47.460Z,9.15
2022-11-22T22:48:49.966Z,10.15
2022-11-22T22:53:52.002Z,9.98
2022-11-22T22:58:58.019Z,10.60
2022-11-22T23:04:01.635Z,10.93
2022-11-22T23:09:06.242Z,10.43
2022-11-22T23:14:08.017Z,10.35
2022-11-22T23:19:10.164Z,11.10
2022-11-22T23:24:12.235Z,11.38
2022-11-22T23:29:14.050Z,10.77
2022-11-22T23:34:15.947Z,10.70
2022-11-22T23:39:17.789Z,12.05
2022-11-22T23:44:19.506Z,11.65
2022-11-22T23:49:21.271Z,10.82
2022-11-22T23:54:23.017Z,11.32
2022-11-22T23:59:24.776Z,11.15
